createdAt,value
2023-04-02T00:01:26.797Z,97659.23
2023-04-02T00:04:26.359Z,97663.80
2023-04-02T00:07:30.713Z,97666.27
2023-04-02T00:10:06.137Z,97669.48
2023-04-02T00:13:07.559Z,97668.60
2023-04-02T00:15:59.588Z,97669.68
2023-04-02T00:18:41.728Z,97671.98
2023-04-02T00:21:38.744Z,97675.64
2023-04-02T00:24:31.533Z,97676.91
2023-04-02T00:27:15.740Z,97678.67
2023-04-02T00:30:00.145Z,97675.55
2023-04-02T00:32:40.342Z,97672.07
2023-04-02T00:35:34.310Z,97676.63
2023-04-02T00:38:13.216Z,97677.02
2023-04-02T00:41:00.232Z,97677.41
2023-04-02T00:43:54.526Z,97676.58
2023-04-02T00:46:49.681Z,97681.65
2023-04-02T00:49:36.907Z,97681.31
2023-04-02T00:52:32.262Z,97682.00
2023-04-02T00:55:13.625Z,97681.68
2023-04-02T00:57:54.025Z,97683.13
2023-04-02T01:00:34.622Z,97688.54
2023-04-02T01:03:38.854Z,97686.63
2023-04-02T01:06:17.228Z,97689.85
2023-04-02T01:09:10.584Z,97693.19
2023-04-02T01:12:34.714Z,97697.73
2023-04-02T01:15:31.219Z,97696.41
2023-04-02T01:18:31.433Z,97701.70
2023-04-02T01:21:23.669Z,97703.14
2023-04-02T01:24:16.450Z,97702.12
2023-04-02T01:27:16.206Z,97702.80
2023-04-02T01:29:59.720Z,97704.55
2023-04-02T01:32:51.958Z,97703.89
2023-04-02T01:35:47.250Z,97707.44
2023-04-02T01:38:27.283Z,97705.35
2023-04-02T01:41:27.952Z,97709.02
2023-04-02T01:44:26.371Z,97710.94
2023-04-02T01:47:20.973Z,97711.52
2023-04-02T01:50:31.444Z,97711.56
2023-04-02T01:53:06.442Z,97710.88
2023-04-02T01:56:01.095Z,97710.02
2023-04-02T01:58:53.305Z,97710.91
2023-04-02T02:01:51.853Z,97712.19
2023-04-02T02:04:44.131Z,97715.77
2023-04-02T02:07:36.166Z,97717.90
2023-04-02T02:10:30.456Z,97716.70
2023-04-02T02:13:05.382Z,97717.42
2023-04-02T02:16:00.288Z,97717.14
2023-04-02T02:18:54.971Z,97722.73
2023-04-02T02:21:42.690Z,97723.79
2023-04-02T02:24:37.240Z,97724.66
2023-04-02T02:27:46.370Z,97727.52
2023-04-02T02:30:41.399Z,97731.56
2023-04-02T02:33:38.217Z,97736.66
2023-04-02T02:36:35.002Z,97737.92
2023-04-02T02:39:34.270Z,97739.55
2023-04-02T02:42:19.993Z,97739.16
2023-04-02T02:45:17.186Z,97741.81
2023-04-02T02:48:00.114Z,97746.73
2023-04-02T02:50:38.084Z,97743.80
2023-04-02T02:53:20.919Z,97747.84
2023-04-02T02:56:13.652Z,97749.25
2023-04-02T02:59:09.330Z,97753.11
2023-04-02T03:02:02.402Z,97752.89
2023-04-02T03:04:51.235Z,97753.26
2023-04-02T03:07:43.271Z,97755.90
2023-04-02T03:10:24.531Z,97758.70
2023-04-02T03:13:23.925Z,97761.49
2023-04-02T03:16:08.648Z,97761.89
2023-04-02T03:19:03.585Z,97765.09
2023-04-02T03:22:03.112Z,97767.02
2023-04-02T03:25:03.014Z,97770.89
2023-04-02T03:28:01.832Z,97768.80
2023-04-02T03:30:43.669Z,97773.52
2023-04-02T03:33:29.151Z,97774.61
2023-04-02T03:36:28.529Z,97778.79
2023-04-02T03:39:19.658Z,97776.87
2023-04-02T03:42:04.119Z,97783.69
2023-04-02T03:45:00.014Z,97784.23
2023-04-02T03:47:38.195Z,97784.57
2023-04-02T03:50:20.412Z,97782.30
2023-04-02T03:53:13.675Z,97785.30
2023-04-02T03:56:07.741Z,97792.13
2023-04-02T03:58:51.043Z,97795.80
2023-04-02T04:01:49.061Z,97797.89
2023-04-02T04:04:43.021Z,97801.50
2023-04-02T04:07:28.996Z,97803.94
2023-04-02T04:10:25.381Z,97805.15
2023-04-02T04:13:24.293Z,97806.02
2023-04-02T04:16:09.666Z,97805.15
2023-04-02T04:19:06.600Z,97810.89
2023-04-02T04:21:38.534Z,97817.50
2023-04-02T04:24:23.924Z,97820.64
2023-04-02T04:27:24.519Z,97827.98
2023-04-02T04:30:24.399Z,97828.67
2023-04-02T04:33:23.380Z,97831.44
2023-04-02T04:36:28.564Z,97832.13
2023-04-02T04:39:29.653Z,97835.96
2023-04-02T04:42:25.222Z,97837.38
2023-04-02T04:45:07.703Z,97841.79
2023-04-02T04:48:04.395Z,97845.55
2023-04-02T04:51:00.607Z,97849.80
2023-04-02T04:53:55.119Z,97856.04
2023-04-02T04:56:52.612Z,97856.87
2023-04-02T04:59:48.850Z,97861.30
2023-04-02T05:02:28.840Z,97861.38
2023-04-02T05:05:22.806Z,97864.96
2023-04-02T05:08:20.366Z,97866.80
2023-04-02T05:11:03.022Z,97868.05
2023-04-02T05:13:59.651Z,97872.11
2023-04-02T05:16:41.768Z,97874.80
2023-04-02T05:19:36.917Z,97884.66
2023-04-02T05:22:26.027Z,97886.64
2023-04-02T05:25:24.333Z,97889.52
2023-04-02T05:28:21.330Z,97892.45
2023-04-02T05:31:17.538Z,97897.39
2023-04-02T05:34:11.617Z,97904.62
2023-04-02T05:37:06.491Z,97910.35
2023-04-02T05:39:51.296Z,97918.43
2023-04-02T05:42:49.308Z,97925.39
2023-04-02T05:45:29.592Z,97929.14
2023-04-02T05:48:18.525Z,97935.80
2023-04-02T05:51:16.813Z,97939.69
2023-04-02T05:53:59.627Z,97942.52
2023-04-02T05:56:55.132Z,97946.41
2023-04-02T05:59:52.725Z,97949.61
2023-04-02T06:02:54.873Z,97954.85
2023-04-02T06:05:48.054Z,97960.24
2023-04-02T06:08:45.142Z,97960.38
2023-04-02T06:11:45.397Z,97965.66
2023-04-02T06:14:37.420Z,97969.23
2023-04-02T06:17:30.062Z,97975.02
2023-04-02T06:20:23.065Z,97981.33
2023-04-02T06:23:19.615Z,97984.05
2023-04-02T06:26:17.780Z,97991.64
2023-04-02T06:28:56.022Z,98000.09
2023-04-02T06:31:51.700Z,98007.21
2023-04-02T06:34:30.780Z,98011.86
2023-04-02T06:37:28.997Z,98022.33
2023-04-02T06:40:40.444Z,98025.55
2023-04-02T06:43:20.323Z,98035.02
2023-04-02T06:45:58.636Z,98037.13
2023-04-02T06:48:42.751Z,98047.09
2023-04-02T06:51:37.635Z,98054.10
2023-04-02T06:54:29.734Z,98057.99
2023-04-02T06:57:21.898Z,98064.85
2023-04-02T07:00:26.467Z,98070.34
2023-04-02T07:03:22.598Z,98073.02
2023-04-02T07:05:54.668Z,98076.40
2023-04-02T07:08:26.748Z,98082.77
2023-04-02T07:11:21.183Z,98085.79
2023-04-02T07:13:54.191Z,98090.38
2023-04-02T07:16:47.018Z,98095.84
2023-04-02T07:19:39.086Z,98100.92
2023-04-02T07:22:31.287Z,98110.14
2023-04-02T07:25:23.407Z,98115.87
2023-04-02T07:27:58.879Z,98116.36
2023-04-02T07:30:51.369Z,98127.13
2023-04-02T07:33:28.321Z,98130.26
2023-04-02T07:36:22.493Z,98136.37
2023-04-02T07:39:14.540Z,98143.86
2023-04-02T07:41:57.579Z,98148.57
2023-04-02T07:44:49.612Z,98151.37
2023-04-02T07:47:42.622Z,98156.44
2023-04-02T07:50:35.037Z,98163.59
2023-04-02T07:53:31.900Z,98170.89
2023-04-02T07:56:25.792Z,98175.38
2023-04-02T07:59:17.833Z,98182.05
2023-04-02T08:02:15.869Z,98187.25
2023-04-02T08:05:09.078Z,98195.67
2023-04-02T08:07:43.483Z,98200.84
2023-04-02T08:10:35.490Z,98210.24
2023-04-02T08:13:27.593Z,98216.67
2023-04-02T08:16:19.768Z,98219.47
2023-04-02T08:19:11.832Z,98228.23
2023-04-02T08:22:04.103Z,98234.86
2023-04-02T08:24:56.389Z,98237.98
2023-04-02T08:27:51.189Z,98241.10
2023-04-02T08:30:43.402Z,98245.28
2023-04-02T08:33:35.762Z,98247.05
2023-04-02T08:36:31.870Z,98256.27
2023-04-02T08:39:24.166Z,98254.71
2023-04-02T08:42:06.062Z,98263.95
2023-04-02T08:45:24.352Z,98269.29
2023-04-02T08:48:18.390Z,98272.57
2023-04-02T08:51:21.059Z,98275.54
2023-04-02T08:54:29.058Z,98282.13
2023-04-02T08:57:32.609Z,98287.81
2023-04-02T09:00:34.116Z,98288.63
2023-04-02T09:03:31.955Z,98292.80
2023-04-02T09:06:26.112Z,98293.15
2023-04-02T09:09:19.859Z,98296.92
2023-04-02T09:12:17.358Z,98297.87
2023-04-02T09:15:24.711Z,98303.20
2023-04-02T09:18:18.381Z,98303.38
2023-04-02T09:21:28.269Z,98308.40
2023-04-02T09:24:20.392Z,98318.11
2023-04-02T09:27:21.582Z,98317.41
2023-04-02T09:30:42.845Z,98325.91
2023-04-02T09:33:48.345Z,98329.25
2023-04-02T09:36:41.059Z,98332.38
2023-04-02T09:39:33.673Z,98338.78
2023-04-02T09:42:36.397Z,98345.08
2023-04-02T09:45:32.568Z,98348.59
2023-04-02T09:48:30.663Z,98353.46
2023-04-02T09:51:25.119Z,98358.04
2023-04-02T09:54:19.394Z,98365.54
2023-04-02T09:57:24.237Z,98370.23
2023-04-02T10:00:32.117Z,98369.20
2023-04-02T10:03:28.514Z,98374.29
2023-04-02T10:06:22.057Z,98380.08
2023-04-02T10:09:32.497Z,98383.77
2023-04-02T10:12:25.988Z,98386.75
2023-04-02T10:15:22.638Z,98392.34
2023-04-02T10:18:22.279Z,98394.60
2023-04-02T10:21:17.988Z,98402.95
2023-04-02T10:24:13.703Z,98406.50
2023-04-02T10:27:17.418Z,98411.89
2023-04-02T10:30:24.983Z,98413.30
2023-04-02T10:33:01.374Z,98416.06
2023-04-02T10:35:58.491Z,98420.56
2023-04-02T10:38:45.416Z,98422.48
2023-04-02T10:41:29.713Z,98422.48
2023-04-02T10:44:20.774Z,98430.98
2023-04-02T10:47:31.048Z,98430.09
2023-04-02T10:50:32.422Z,98431.48
2023-04-02T10:53:34.901Z,98433.72
2023-04-02T10:56:28.631Z,98444.64
2023-04-02T10:59:27.793Z,98445.02
2023-04-02T11:02:31.857Z,98446.98
2023-04-02T11:05:36.659Z,98450.31
2023-04-02T11:08:32.590Z,98457.61
2023-04-02T11:11:24.566Z,98460.56
2023-04-02T11:14:18.683Z,98465.60
2023-04-02T11:17:16.703Z,98465.08
2023-04-02T11:20:40.646Z,98471.50
2023-04-02T11:23:36.187Z,98475.50
2023-04-02T11:26:47.307Z,98478.96
2023-04-02T11:29:41.532Z,98482.27
2023-04-02T11:32:43.620Z,98492.17
2023-04-02T11:35:42.140Z,98492.54
2023-04-02T11:38:54.947Z,98496.89
2023-04-02T11:42:03.416Z,98498.62
2023-04-02T11:44:56.198Z,98502.44
2023-04-02T11:48:28.990Z,98505.56
2023-04-02T11:51:56.525Z,98506.44
2023-04-02T11:55:24.962Z,98512.73
2023-04-02T11:58:39.623Z,98518.66
2023-04-02T12:01:56.728Z,98518.98
2023-04-02T12:05:22.992Z,98517.50
2023-04-02T12:08:30.451Z,98519.71
2023-04-02T12:11:12.200Z,98523.56
2023-04-02T12:13:58.537Z,98524.61
2023-04-02T12:16:52.387Z,98525.48
2023-04-02T12:19:30.634Z,98532.61
2023-04-02T12:22:25.541Z,98535.41
2023-04-02T12:25:29.840Z,98542.39
2023-04-02T12:28:22.443Z,98543.28
2023-04-02T12:31:17.653Z,98547.09
2023-04-02T12:34:17.446Z,98542.75
2023-04-02T12:36:57.199Z,98549.02
2023-04-02T12:39:55.460Z,98552.67
2023-04-02T12:42:37.838Z,98551.80
2023-04-02T12:45:27.251Z,98555.95
2023-04-02T12:48:07.323Z,98556.63
2023-04-02T12:51:00.231Z,98560.97
2023-04-02T12:53:38.023Z,98562.55
2023-04-02T12:56:19.677Z,98564.66
2023-04-02T12:58:58.468Z,98571.10
2023-04-02T13:01:33.891Z,98574.77
2023-04-02T13:04:12.182Z,98574.77
2023-04-02T13:07:04.418Z,98580.67
2023-04-02T13:09:48.797Z,98584.71
2023-04-02T13:12:34.852Z,98588.73
2023-04-02T13:15:22.085Z,98592.20
2023-04-02T13:18:23.500Z,98597.78
2023-04-02T13:21:00.030Z,98598.14
2023-04-02T13:23:41.376Z,98602.66
2023-04-02T13:26:24.485Z,98602.14
2023-04-02T13:29:01.582Z,98605.08
2023-04-02T13:31:36.804Z,98609.44
2023-04-02T13:34:29.348Z,98612.38
2023-04-02T13:37:21.420Z,98617.59
2023-04-02T13:39:53.567Z,98620.38
2023-04-02T13:42:46.945Z,98625.58
2023-04-02T13:45:27.787Z,98626.46
2023-04-02T13:48:01.974Z,98628.02
2023-04-02T13:50:42.997Z,98632.89
2023-04-02T13:53:26.649Z,98631.86
2023-04-02T13:56:19.451Z,98632.03
2023-04-02T13:59:11.673Z,98637.74
2023-04-02T14:02:07.564Z,98635.66
2023-04-02T14:04:50.647Z,98636.88
2023-04-02T14:07:56.710Z,98638.27
2023-04-02T14:10:49.306Z,98640.19
2023-04-02T14:13:41.408Z,98646.63
2023-04-02T14:16:37.013Z,98654.45
2023-04-02T14:19:34.921Z,98659.81
2023-04-02T14:22:25.457Z,98663.64
2023-04-02T14:25:07.687Z,98665.73
2023-04-02T14:27:55.869Z,98665.73
2023-04-02T14:30:56.734Z,98672.83
2023-04-02T14:33:41.396Z,98672.13
2023-04-02T14:36:36.921Z,98672.30
2023-04-02T14:39:26.186Z,98682.04
2023-04-02T14:42:23.129Z,98682.20
2023-04-02T14:45:07.321Z,98683.41
2023-04-02T14:47:47.529Z,98684.45
2023-04-02T14:50:29.471Z,98684.64
2023-04-02T14:53:25.428Z,98690.55
2023-04-02T14:56:09.299Z,98694.01
2023-04-02T14:58:52.739Z,98698.55
2023-04-02T15:01:33.628Z,98699.56
2023-04-02T15:04:32.096Z,98700.25
2023-04-02T15:07:28.518Z,98704.77
2023-04-02T15:10:27.357Z,98705.47
2023-04-02T15:13:22.508Z,98710.85
2023-04-02T15:16:19.411Z,98712.56
2023-04-02T15:18:56.263Z,98717.25
2023-04-02T15:22:02.146Z,98723.85
2023-04-02T15:24:48.784Z,98723.30
2023-04-02T15:27:59.110Z,98724.34
2023-04-02T15:30:43.215Z,98729.38
2023-04-02T15:33:36.879Z,98738.23
2023-04-02T15:36:26.682Z,98740.66
2023-04-02T15:39:42.844Z,98741.70
2023-04-02T15:42:22.846Z,98746.03
2023-04-02T15:45:16.340Z,98747.07
2023-04-02T15:48:02.060Z,98751.41
2023-04-02T15:50:48.269Z,98754.36
2023-04-02T15:53:34.518Z,98762.69
2023-04-02T15:56:23.003Z,98767.55
2023-04-02T15:59:09.252Z,98766.67
2023-04-02T16:01:50.503Z,98768.77
2023-04-02T16:04:33.262Z,98772.23
2023-04-02T16:07:20.426Z,98773.96
2023-04-02T16:09:58.892Z,98776.39
2023-04-02T16:12:38.314Z,98780.70
2023-04-02T16:15:23.558Z,98782.44
2023-04-02T16:17:59.867Z,98782.95
2023-04-02T16:20:36.190Z,98790.23
2023-04-02T16:23:34.978Z,98792.61
2023-04-02T16:26:19.308Z,98796.60
2023-04-02T16:29:01.945Z,98802.64
2023-04-02T16:32:03.380Z,98801.92
2023-04-02T16:34:45.581Z,98809.38
2023-04-02T16:37:29.923Z,98811.45
2023-04-02T16:40:09.223Z,98818.86
2023-04-02T16:43:16.435Z,98818.69
2023-04-02T16:46:20.339Z,98821.98
2023-04-02T16:49:26.739Z,98829.79
2023-04-02T16:52:34.467Z,98832.21
2023-04-02T16:55:25.745Z,98837.06
2023-04-02T16:58:15.266Z,98836.02
2023-04-02T17:01:16.296Z,98840.70
2023-04-02T17:04:26.944Z,98843.13
2023-04-02T17:07:28.941Z,98845.73
2023-04-02T17:10:32.356Z,98849.02
2023-04-02T17:13:32.543Z,98848.16
2023-04-02T17:16:19.931Z,98854.57
2023-04-02T17:19:14.425Z,98859.23
2023-04-02T17:22:01.963Z,98864.25
2023-04-02T17:24:41.617Z,98870.86
2023-04-02T17:27:26.593Z,98870.11
2023-04-02T17:30:18.562Z,98872.89
2023-04-02T17:33:14.590Z,98877.21
2023-04-02T17:36:07.097Z,98880.13
2023-04-02T17:38:52.194Z,98883.39
2023-04-02T17:41:49.252Z,98884.41
2023-04-02T17:44:53.912Z,98886.14
2023-04-02T17:47:37.456Z,98890.81
2023-04-02T17:50:39.255Z,98894.45
2023-04-02T17:53:31.663Z,98894.63
2023-04-02T17:56:19.865Z,98899.30
2023-04-02T17:59:12.315Z,98905.52
2023-04-02T18:02:03.851Z,98905.70
2023-04-02T18:04:50.770Z,98910.02
2023-04-02T18:07:32.743Z,98913.13
2023-04-02T18:10:21.011Z,98913.82
2023-04-02T18:13:08.157Z,98921.27
2023-04-02T18:16:07.341Z,98919.88
2023-04-02T18:19:05.965Z,98922.79
2023-04-02T18:21:47.858Z,98923.30
2023-04-02T18:24:33.920Z,98926.59
2023-04-02T18:27:20.974Z,98934.56
2023-04-02T18:30:14.517Z,98932.31
2023-04-02T18:33:09.270Z,98937.67
2023-04-02T18:35:51.396Z,98943.55
2023-04-02T18:38:48.626Z,98941.96
2023-04-02T18:41:44.228Z,98944.40
2023-04-02T18:44:54.732Z,98944.73
2023-04-02T18:47:34.156Z,98947.11
2023-04-02T18:50:17.489Z,98949.88
2023-04-02T18:52:52.892Z,98946.24
2023-04-02T18:55:28.057Z,98953.16
2023-04-02T18:58:05.048Z,98958.19
2023-04-02T19:00:59.557Z,98959.73
2023-04-02T19:03:37.727Z,98959.89
2023-04-02T19:06:15.633Z,98964.25
2023-04-02T19:09:15.183Z,98968.24
2023-04-02T19:11:49.227Z,98969.45
2023-04-02T19:14:32.242Z,98976.38
2023-04-02T19:17:20.927Z,98978.98
2023-04-02T19:20:04.789Z,98980.88
2023-04-02T19:22:45.717Z,98983.31
2023-04-02T19:25:37.827Z,98985.91
2023-04-02T19:28:34.944Z,98988.23
2023-04-02T19:31:29.249Z,98988.77
2023-04-02T19:34:16.645Z,98993.64
2023-04-02T19:37:16.738Z,98993.80
2023-04-02T19:40:30.731Z,98992.75
2023-04-02T19:43:23.348Z,98991.36
2023-04-02T19:45:56.265Z,98992.87
2023-04-02T19:48:42.442Z,98995.56
2023-04-02T19:51:34.825Z,98993.48
2023-04-02T19:54:27.228Z,98997.96
2023-04-02T19:57:03.919Z,98998.79
2023-04-02T19:59:37.402Z,98999.09
2023-04-02T20:02:29.715Z,99000.10
2023-04-02T20:05:08.331Z,99004.42
2023-04-02T20:08:00.305Z,99006.83
2023-04-02T20:10:52.440Z,99006.28
2023-04-02T20:13:44.474Z,99006.77
2023-04-02T20:16:38.603Z,99005.90
2023-04-02T20:19:19.595Z,99010.75
2023-04-02T20:22:11.682Z,99010.54
2023-04-02T20:25:03.647Z,99011.52
2023-04-02T20:27:38.267Z,99012.16
2023-04-02T20:30:30.612Z,99014.59
2023-04-02T20:33:05.618Z,99012.85
2023-04-02T20:35:37.792Z,99021.34
2023-04-02T20:38:30.947Z,99022.55
2023-04-02T20:41:23.585Z,99027.37
2023-04-02T20:44:15.837Z,99033.25
2023-04-02T20:46:58.359Z,99033.77
2023-04-02T20:49:51.213Z,99035.67
2023-04-02T20:52:35.150Z,99038.58
2023-04-02T20:55:11.953Z,99040.47
2023-04-02T20:57:52.475Z,99041.00
2023-04-02T21:00:40.659Z,99045.27
2023-04-02T21:03:32.922Z,99046.98
2023-04-02T21:06:26.264Z,99053.36
2023-04-02T21:09:08.867Z,99054.55
2023-04-02T21:12:01.223Z,99054.52
2023-04-02T21:14:57.303Z,99051.85
2023-04-02T21:17:35.293Z,99053.23
2023-04-02T21:20:13.765Z,99055.13
2023-04-02T21:23:05.941Z,99054.77
2023-04-02T21:26:02.928Z,99057.36
2023-04-02T21:28:55.617Z,99058.58
2023-04-02T21:31:32.058Z,99057.20
2023-04-02T21:34:24.200Z,99060.14
2023-04-02T21:37:16.200Z,99065.84
2023-04-02T21:40:10.463Z,99067.21
2023-04-02T21:43:02.717Z,99072.05
2023-04-02T21:45:35.049Z,99070.45
2023-04-02T21:48:10.572Z,99077.17
2023-04-02T21:50:42.483Z,99082.13
2023-04-02T21:53:17.090Z,99087.30
2023-04-02T21:55:49.286Z,99088.02
2023-04-02T21:58:41.615Z,99093.23
2023-04-02T22:01:36.392Z,99089.20
2023-04-02T22:04:30.677Z,99095.74
2023-04-02T22:07:11.272Z,99097.05
2023-04-02T22:10:03.341Z,99098.34
2023-04-02T22:12:44.423Z,99100.71
2023-04-02T22:15:16.388Z,99105.35
2023-04-02T22:17:53.525Z,99108.23
2023-04-02T22:20:34.669Z,99108.02
2023-04-02T22:23:28.865Z,99107.48
2023-04-02T22:26:11.095Z,99113.89
2023-04-02T22:29:03.921Z,99114.01
2023-04-02T22:31:39.153Z,99115.82
2023-04-02T22:34:11.210Z,99118.54
2023-04-02T22:36:45.284Z,99123.67
2023-04-02T22:39:24.708Z,99120.98
2023-04-02T22:42:03.840Z,99125.13
2023-04-02T22:44:38.622Z,99125.98
2023-04-02T22:47:30.774Z,99125.64
2023-04-02T22:50:22.824Z,99129.77
2023-04-02T22:53:15.248Z,99126.28
2023-04-02T22:56:09.252Z,99124.18
2023-04-02T22:59:01.353Z,99129.35
2023-04-02T23:01:53.487Z,99131.06
2023-04-02T23:04:27.744Z,99130.54
2023-04-02T23:07:19.989Z,99135.40
2023-04-02T23:10:12.446Z,99134.71
2023-04-02T23:13:04.398Z,99135.17
2023-04-02T23:15:56.557Z,99137.88
2023-04-02T23:18:34.879Z,99134.89
2023-04-02T23:21:27.871Z,99134.34
2023-04-02T23:24:02.508Z,99132.02
2023-04-02T23:26:41.722Z,99130.23
2023-04-02T23:29:33.686Z,99128.64
2023-04-02T23:32:15.652Z,99131.95
2023-04-02T23:34:52.826Z,99129.37
2023-04-02T23:37:35.092Z,99133.67
2023-04-02T23:40:27.164Z,99131.58
2023-04-02T23:43:19.241Z,99135.14
2023-04-02T23:46:11.887Z,99132.86
2023-04-02T23:48:46.748Z,99137.88
2023-04-02T23:51:28.402Z,99136.36
2023-04-02T23:54:03.336Z,99135.80
2023-04-02T23:56:40.892Z,99140.99
2023-04-02T23:59:32.846Z,99140.66
